PWSweather.com
Personal Weather Stations
Station Observations
IHTIMAN1
Neighbourhood 1, IhtimanBG 2050

Neighbourhood 1IhtimanBG 2050

Lat: 42.436852, Lon: 23.817921

Elevation: 2066

Station Type: Oregon Scientific WMR968

http://ihtiman-meteo.com

Latest ConditionsUpdated 9:40:10 AM GMT+02:02 Friday, Jan 19, 2018
Currently Today's Max Today's Min Today's Average
Temperature 34.9°F1.6°C 34.9°F1.6°C 26.6°F-3.0°C 28.8°F-1.8°C
Dew Point 26.4°F-3.1°C 26.4°F-3.1°C 19.4°F-7.0°C 21.3°F-5.9°C
Winds 3.9 mph NNW6.3 kmh NNW 7.0 mph NNW11.3 kmh NNW - 2.5 mph 4.0 kmh
Wind Gusts 4.5 mph7.2 kmh 10.1 mph16.3 kmh - -
Humidity 71% 74% 71% 73%
Pressure 29.77 in1008.1 mb 29.80 in1009.1 mb 29.74 in1007.1 mb -
Hour Temp Dew Point Humidity Winds Wind Gusts Pressure Precip Precip Rate Daily Precip Total
09:40 AM 34.9°F1.6°C 26.4°F-3.1°C 71% 3.9 mph NNW6.3 kmh NNW 4.5 mph7.2 kmh 29.77 in1008.1 mb - 0.00 in0.0 mm 0.00 in0.0 mm
09:30 AM 33.8°F1.0°C 25.8°F-3.4°C 72% 4.1 mph N6.6 kmh N 8.3 mph13.4 kmh 29.77 in1008.1 mb - 0.00 in0.0 mm 0.00 in0.0 mm
09:20 AM 33.1°F0.6°C 25.0°F-3.9°C 72% Calm Calm 2.7 mph4.3 kmh 29.77 in1008.1 mb - 0.00 in0.0 mm 0.00 in0.0 mm
09:10 AM 32.5°F0.3°C 24.8°F-4.0°C 73% 4.1 mph WNW6.6 kmh WNW 6.3 mph10.1 kmh 29.77 in1008.1 mb - 0.00 in0.0 mm 0.00 in0.0 mm
09:00 AM 31.3°F-0.4°C 23.6°F-4.7°C 73% Calm Calm -- 29.77 in1008.1 mb - 0.00 in0.0 mm 0.00 in0.0 mm
08:50 AM 29.0°F-1.7°C 21.7°F-5.7°C 74% Calm Calm -- 29.77 in1008.1 mb - 0.00 in0.0 mm 0.00 in0.0 mm
08:40 AM 27.5°F-2.5°C 20.3°F-6.5°C 74% Calm Calm 2.2 mph3.5 kmh 29.77 in1008.1 mb - 0.00 in0.0 mm 0.00 in0.0 mm
08:30 AM 27.3°F-2.6°C 20.1°F-6.6°C 74% Calm Calm -- 29.77 in1008.1 mb - 0.00 in0.0 mm 0.00 in0.0 mm
08:20 AM 27.2°F-2.7°C 20.0°F-6.7°C 74% Calm Calm 2.2 mph3.5 kmh 29.77 in1008.1 mb - 0.00 in0.0 mm 0.00 in0.0 mm
08:10 AM 27.1°F-2.7°C 19.9°F-6.7°C 74% 3.1 mph SW5.0 kmh SW 5.4 mph8.7 kmh 29.77 in1008.1 mb - 0.00 in0.0 mm 0.00 in0.0 mm
08:00 AM 27.1°F-2.7°C 19.9°F-6.7°C 74% 3.1 mph WSW5.0 kmh WSW 4.9 mph7.9 kmh 29.74 in1007.1 mb - 0.00 in0.0 mm 0.00 in0.0 mm
07:50 AM 27.3°F-2.6°C 20.1°F-6.6°C 74% Calm Calm 2.2 mph3.5 kmh 29.74 in1007.1 mb - 0.00 in0.0 mm 0.00 in0.0 mm
07:40 AM 27.7°F-2.4°C 20.5°F-6.4°C 74% Calm Calm -- 29.74 in1007.1 mb - 0.00 in0.0 mm 0.00 in0.0 mm
07:30 AM 28.0°F-2.2°C 20.8°F-6.2°C 74% 3.6 mph W5.8 kmh W 5.4 mph8.7 kmh 29.74 in1007.1 mb - 0.00 in0.0 mm 0.00 in0.0 mm
07:20 AM 28.4°F-2.0°C 21.2°F-6.0°C 74% Calm Calm 2.7 mph4.3 kmh 29.74 in1007.1 mb - 0.00 in0.0 mm 0.00 in0.0 mm
07:10 AM 27.8°F-2.3°C 20.6°F-6.3°C 74% 3.9 mph W6.3 kmh W 3.6 mph5.8 kmh 29.74 in1007.1 mb - 0.00 in0.0 mm 0.00 in0.0 mm
07:00 AM 27.1°F-2.7°C 19.9°F-6.7°C 74% 4.0 mph N6.4 kmh N 6.3 mph10.1 kmh 29.74 in1007.1 mb - 0.00 in0.0 mm 0.00 in0.0 mm
06:50 AM 26.8°F-2.9°C 19.6°F-6.9°C 74% 5.3 mph NW8.5 kmh NW 8.0 mph12.9 kmh 29.74 in1007.1 mb - 0.00 in0.0 mm 0.00 in0.0 mm
06:40 AM 27.0°F-2.8°C 19.8°F-6.8°C 74% Calm Calm -- 29.74 in1007.1 mb - 0.00 in0.0 mm 0.00 in0.0 mm
06:30 AM 27.1°F-2.7°C 19.9°F-6.7°C 74% 3.3 mph WNW5.3 kmh WNW 4.0 mph6.4 kmh 29.74 in1007.1 mb - 0.00 in0.0 mm 0.00 in0.0 mm
06:20 AM 27.5°F-2.5°C 20.3°F-6.5°C 74% Calm Calm -- 29.74 in1007.1 mb - 0.00 in0.0 mm 0.00 in0.0 mm
06:10 AM 27.9°F-2.3°C 20.6°F-6.3°C 74% 2.5 mph SW4.0 kmh SW 3.6 mph5.8 kmh 29.74 in1007.1 mb - 0.00 in0.0 mm 0.00 in0.0 mm
06:00 AM 27.9°F-2.3°C 20.6°F-6.3°C 74% Calm Calm -- 29.74 in1007.1 mb - 0.00 in0.0 mm 0.00 in0.0 mm
05:50 AM 27.9°F-2.3°C 20.6°F-6.3°C 74% 2.7 mph NW4.3 kmh NW 4.0 mph6.4 kmh 29.74 in1007.1 mb - 0.00 in0.0 mm 0.00 in0.0 mm
05:40 AM 27.5°F-2.5°C 20.3°F-6.5°C 74% 5.0 mph N8.0 kmh N 6.3 mph10.1 kmh 29.77 in1008.1 mb - 0.00 in0.0 mm 0.00 in0.0 mm
05:30 AM 27.3°F-2.6°C 20.1°F-6.6°C 74% 2.1 mph W3.4 kmh W 4.9 mph7.9 kmh 29.74 in1007.1 mb - 0.00 in0.0 mm 0.00 in0.0 mm
05:20 AM 27.5°F-2.5°C 20.3°F-6.5°C 74% 3.9 mph WNW6.3 kmh WNW 4.0 mph6.4 kmh 29.74 in1007.1 mb - 0.00 in0.0 mm 0.00 in0.0 mm
05:10 AM 27.3°F-2.6°C 20.1°F-6.6°C 74% 6.8 mph NW10.9 kmh NW 7.6 mph12.2 kmh 29.74 in1007.1 mb - 0.00 in0.0 mm 0.00 in0.0 mm
05:00 AM 27.0°F-2.8°C 19.8°F-6.8°C 74% 4.9 mph N7.9 kmh N 8.3 mph13.4 kmh 29.77 in1008.1 mb - 0.00 in0.0 mm 0.00 in0.0 mm
04:50 AM 27.0°F-2.8°C 19.8°F-6.8°C 74% 3.2 mph W5.1 kmh W 5.4 mph8.7 kmh 29.77 in1008.1 mb - 0.00 in0.0 mm 0.00 in0.0 mm
04:40 AM 27.0°F-2.8°C 19.8°F-6.8°C 74% 4.5 mph W7.2 kmh W 4.9 mph7.9 kmh 29.77 in1008.1 mb - 0.00 in0.0 mm 0.00 in0.0 mm
04:30 AM 27.0°F-2.8°C 19.8°F-6.8°C 74% 4.7 mph NW7.6 kmh NW 5.8 mph9.3 kmh 29.74 in1007.1 mb - 0.00 in0.0 mm 0.00 in0.0 mm
04:20 AM 26.8°F-2.9°C 19.6°F-6.9°C 74% 5.3 mph NW8.5 kmh NW 6.3 mph10.1 kmh 29.74 in1007.1 mb - 0.00 in0.0 mm 0.00 in0.0 mm
04:10 AM 26.6°F-3.0°C 19.4°F-7.0°C 74% 4.5 mph NNW7.2 kmh NNW 7.6 mph12.2 kmh 29.77 in1008.1 mb - 0.00 in0.0 mm 0.00 in0.0 mm
04:00 AM 26.6°F-3.0°C 19.5°F-6.9°C 74% 0.7 mph NW1.1 kmh NW 5.4 mph8.7 kmh 29.77 in1008.1 mb - 0.00 in0.0 mm 0.00 in0.0 mm
03:50 AM 27.0°F-2.8°C 19.5°F-6.9°C 73% Calm Calm -- 29.77 in1008.1 mb - 0.00 in0.0 mm 0.00 in0.0 mm
03:40 AM 27.3°F-2.6°C 19.8°F-6.8°C 73% Calm Calm -- 29.77 in1008.1 mb - 0.00 in0.0 mm 0.00 in0.0 mm
03:30 AM 27.8°F-2.3°C 20.3°F-6.5°C 73% Calm Calm 2.2 mph3.5 kmh 29.77 in1008.1 mb - 0.00 in0.0 mm 0.00 in0.0 mm
03:20 AM 28.2°F-2.1°C 20.7°F-6.3°C 73% 0.2 mph SW0.3 kmh SW 5.4 mph8.7 kmh 29.77 in1008.1 mb - 0.00 in0.0 mm 0.00 in0.0 mm
03:10 AM 28.8°F-1.8°C 21.2°F-6.0°C 73% 3.3 mph W5.3 kmh W 4.0 mph6.4 kmh 29.77 in1008.1 mb - 0.00 in0.0 mm 0.00 in0.0 mm
03:00 AM 29.1°F-1.6°C 21.5°F-5.8°C 73% 0.6 mph WSW1.0 kmh WSW 3.1 mph5.0 kmh 29.77 in1008.1 mb - 0.00 in0.0 mm 0.00 in0.0 mm
02:50 AM 29.1°F-1.6°C 21.5°F-5.8°C 73% Calm Calm 2.2 mph3.5 kmh 29.77 in1008.1 mb - 0.00 in0.0 mm 0.00 in0.0 mm
02:40 AM 28.8°F-1.8°C 21.2°F-6.0°C 73% 1.0 mph NW1.6 kmh NW 4.9 mph7.9 kmh 29.77 in1008.1 mb - 0.00 in0.0 mm 0.00 in0.0 mm
02:30 AM 28.6°F-1.9°C 21.0°F-6.1°C 73% 0.1 mph ESE0.2 kmh ESE 4.0 mph6.4 kmh 29.77 in1008.1 mb - 0.00 in0.0 mm 0.00 in0.0 mm
02:20 AM 28.8°F-1.8°C 21.2°F-6.0°C 73% Calm Calm -- 29.77 in1008.1 mb - 0.00 in0.0 mm 0.00 in0.0 mm
02:10 AM 29.4°F-1.4°C 21.8°F-5.7°C 73% Calm Calm -- 29.77 in1008.1 mb - 0.00 in0.0 mm 0.00 in0.0 mm
02:00 AM 29.8°F-1.2°C 22.2°F-5.4°C 73% Calm Calm -- 29.77 in1008.1 mb - 0.00 in0.0 mm 0.00 in0.0 mm
01:50 AM 30.2°F-1.0°C 22.6°F-5.2°C 73% Calm Calm -- 29.77 in1008.1 mb - 0.00 in0.0 mm 0.00 in0.0 mm
01:40 AM 30.2°F-1.0°C 22.5°F-5.3°C 73% 4.2 mph N6.8 kmh N 7.2 mph11.6 kmh 29.77 in1008.1 mb - 0.00 in0.0 mm 0.00 in0.0 mm
01:30 AM 30.2°F-1.0°C 22.6°F-5.2°C 73% 2.5 mph N4.0 kmh N 3.6 mph5.8 kmh 29.77 in1008.1 mb - 0.00 in0.0 mm 0.00 in0.0 mm
01:20 AM 30.4°F-0.9°C 22.4°F-5.3°C 72% 3.1 mph NNE5.0 kmh NNE 8.3 mph13.4 kmh 29.77 in1008.1 mb - 0.00 in0.0 mm 0.00 in0.0 mm
01:10 AM 30.6°F-0.8°C 22.6°F-5.2°C 72% 5.4 mph NNW8.7 kmh NNW 10.1 mph16.3 kmh 29.77 in1008.1 mb - 0.00 in0.0 mm 0.00 in0.0 mm
01:00 AM 30.6°F-0.8°C 22.6°F-5.2°C 72% 6.0 mph NE9.7 kmh NE 8.3 mph13.4 kmh 29.77 in1008.1 mb - 0.00 in0.0 mm 0.00 in0.0 mm
12:50 AM 30.6°F-0.8°C 22.6°F-5.2°C 72% 5.9 mph N9.5 kmh N 10.1 mph16.3 kmh 29.77 in1008.1 mb - 0.00 in0.0 mm 0.00 in0.0 mm
12:40 AM 30.6°F-0.8°C 22.7°F-5.2°C 72% 4.6 mph 7.4 kmh 7.6 mph12.2 kmh 29.80 in1009.1 mb - 0.00 in0.0 mm 0.00 in0.0 mm
12:30 AM 30.9°F-0.6°C 23.0°F-5.0°C 72% 5.5 mph N8.9 kmh N 7.6 mph12.2 kmh 29.80 in1009.1 mb - 0.00 in0.0 mm 0.00 in0.0 mm
12:20 AM 31.3°F-0.4°C 23.3°F-4.8°C 72% 6.1 mph N9.8 kmh N 8.0 mph12.9 kmh 29.80 in1009.1 mb - 0.00 in0.0 mm 0.00 in0.0 mm
12:10 AM 31.5°F-0.3°C 23.5°F-4.7°C 72% 3.1 mph N5.0 kmh N 5.8 mph9.3 kmh 29.80 in1009.1 mb - 0.00 in0.0 mm 0.00 in0.0 mm
12:00 AM 31.4°F-0.3°C 23.7°F-4.6°C 73% 7.0 mph NNW11.3 kmh NNW 7.6 mph12.2 kmh 29.80 in1009.1 mb - 0.00 in0.0 mm 0.00 in0.0 mm